createdAt,value
2018-03-31T00:00:21.424Z,30.40
2018-03-31T00:02:48.508Z,31.30
2018-03-31T00:05:15.510Z,29.53
2018-03-31T00:07:43.277Z,29.70
2018-03-31T00:10:11.016Z,28.60
2018-03-31T00:12:38.074Z,28.70
2018-03-31T00:15:05.829Z,30.23
2018-03-31T00:17:33.309Z,30.93
2018-03-31T00:20:00.245Z,33.50
2018-03-31T00:22:28.010Z,34.77
2018-03-31T00:24:55.052Z,31.50
2018-03-31T00:27:22.816Z,29.90
2018-03-31T00:29:49.971Z,37.80
2018-03-31T00:32:16.952Z,29.70
2018-03-31T00:34:43.948Z,31.67
2018-03-31T00:37:10.916Z,31.47
2018-03-31T00:39:38.663Z,32.37
2018-03-31T00:42:05.649Z,30.03
2018-03-31T00:44:32.715Z,32.20
2018-03-31T00:46:59.841Z,36.50
2018-03-31T00:49:27.589Z,31.30
2018-03-31T00:51:55.447Z,31.43
2018-03-31T00:54:22.438Z,30.67
2018-03-31T00:56:49.447Z,27.80
2018-03-31T00:59:17.228Z,28.53
2018-03-31T01:01:44.979Z,24.97
2018-03-31T01:04:12.733Z,26.17
2018-03-31T01:06:39.744Z,26.63
2018-03-31T01:09:06.840Z,25.20
2018-03-31T01:11:34.613Z,26.90
2018-03-31T01:14:02.355Z,25.07
2018-03-31T01:16:29.356Z,23.67
2018-03-31T01:18:56.320Z,23.20
2018-03-31T01:21:24.122Z,22.90
2018-03-31T01:23:51.876Z,25.43
2018-03-31T01:26:18.867Z,24.30
2018-03-31T01:28:45.833Z,24.23
2018-03-31T01:31:12.845Z,27.17
2018-03-31T01:33:39.954Z,25.93
2018-03-31T01:36:06.931Z,27.13
2018-03-31T01:38:34.707Z,23.13
2018-03-31T01:41:01.701Z,28.27
2018-03-31T01:43:28.691Z,24.90
2018-03-31T01:45:56.465Z,26.47
2018-03-31T01:48:24.313Z,27.53
2018-03-31T01:50:52.092Z,27.67
2018-03-31T01:53:19.834Z,26.33
2018-03-31T01:55:46.806Z,26.70
2018-03-31T01:58:14.615Z,26.23
2018-03-31T02:00:41.615Z,26.43
2018-03-31T02:03:09.419Z,27.40
2018-03-31T02:05:36.426Z,28.37
2018-03-31T02:08:03.427Z,28.47
2018-03-31T02:10:31.393Z,28.40
2018-03-31T02:12:58.404Z,26.53
2018-03-31T02:15:25.497Z,28.67
2018-03-31T02:17:52.471Z,27.70
2018-03-31T02:20:19.452Z,27.40
2018-03-31T02:22:46.425Z,29.03
2018-03-31T02:25:13.446Z,27.90
2018-03-31T02:27:40.426Z,26.63
2018-03-31T02:30:07.433Z,25.80
2018-03-31T02:32:34.421Z,25.83
2018-03-31T02:35:01.460Z,25.60
2018-03-31T02:37:29.224Z,28.77
2018-03-31T02:39:56.221Z,26.10
2018-03-31T02:42:23.974Z,29.93
2018-03-31T02:44:51.767Z,27.00
2018-03-31T02:47:18.763Z,29.20
2018-03-31T02:49:45.783Z,28.40
2018-03-31T02:52:12.779Z,27.50
2018-03-31T02:54:39.891Z,27.33
2018-03-31T02:57:06.869Z,29.03
2018-03-31T02:59:33.860Z,31.20
2018-03-31T03:02:00.865Z,30.87
2018-03-31T03:04:27.948Z,33.10
2018-03-31T03:06:54.932Z,33.67
2018-03-31T03:09:21.928Z,34.03
2018-03-31T03:11:48.928Z,32.37
2018-03-31T03:14:15.932Z,30.30
2018-03-31T03:16:43.412Z,32.10
2018-03-31T03:19:10.378Z,32.23
2018-03-31T03:21:37.368Z,35.47
2018-03-31T03:24:05.133Z,31.97
2018-03-31T03:26:32.884Z,32.60
2018-03-31T03:29:00.615Z,35.50
2018-03-31T03:31:27.623Z,31.03
2018-03-31T03:33:54.607Z,33.17
2018-03-31T03:36:21.602Z,29.13
2018-03-31T03:38:49.363Z,30.93
2018-03-31T03:41:17.106Z,32.80
2018-03-31T03:43:44.097Z,30.43
2018-03-31T03:46:11.083Z,32.93
2018-03-31T03:48:38.092Z,29.97
2018-03-31T03:51:05.094Z,33.63
2018-03-31T03:53:32.076Z,33.37
2018-03-31T03:55:59.083Z,31.90
2018-03-31T03:58:26.162Z,30.33
2018-03-31T04:00:53.894Z,30.73
2018-03-31T04:03:20.891Z,32.57
2018-03-31T04:05:48.019Z,30.23
2018-03-31T04:08:15.795Z,29.87
2018-03-31T04:10:42.821Z,31.70
2018-03-31T04:13:09.796Z,30.13
2018-03-31T04:15:36.823Z,32.93
2018-03-31T04:18:04.602Z,31.80
2018-03-31T04:20:32.357Z,31.07
2018-03-31T04:23:00.146Z,28.70
2018-03-31T04:25:27.171Z,29.37
2018-03-31T04:27:54.969Z,28.07
2018-03-31T04:30:21.960Z,31.20
2018-03-31T04:32:49.074Z,32.20
2018-03-31T04:35:16.066Z,31.37
2018-03-31T04:37:43.836Z,32.60
2018-03-31T04:40:11.590Z,31.73
2018-03-31T04:42:39.386Z,33.13
2018-03-31T04:45:07.151Z,34.53
2018-03-31T04:47:34.149Z,33.33
2018-03-31T04:50:01.131Z,35.17
2018-03-31T04:52:28.921Z,34.67
2018-03-31T04:54:55.963Z,34.67
2018-03-31T04:57:22.926Z,37.83
2018-03-31T04:59:49.925Z,34.50
2018-03-31T05:02:17.659Z,38.43
2018-03-31T05:04:44.645Z,37.50
2018-03-31T05:07:12.423Z,39.40
2018-03-31T05:09:39.422Z,38.43
2018-03-31T05:12:06.411Z,39.27
2018-03-31T05:14:34.144Z,42.87
2018-03-31T05:17:01.663Z,38.97
2018-03-31T05:19:28.631Z,44.47
2018-03-31T05:21:55.653Z,40.00
2018-03-31T05:24:22.673Z,38.87
2018-03-31T05:26:50.436Z,42.20
2018-03-31T05:29:18.177Z,40.87
2018-03-31T05:31:45.179Z,37.53
2018-03-31T05:34:12.201Z,37.70
2018-03-31T05:36:39.227Z,36.57
2018-03-31T05:39:06.196Z,36.40
2018-03-31T05:41:33.264Z,38.03
2018-03-31T05:44:00.267Z,36.03
2018-03-31T05:46:28.027Z,37.00
2018-03-31T05:48:55.081Z,35.47
2018-03-31T05:51:22.069Z,36.77
2018-03-31T05:53:49.065Z,34.90
2018-03-31T05:56:16.071Z,35.23
2018-03-31T05:58:43.072Z,35.00
2018-03-31T06:01:10.824Z,36.00
2018-03-31T06:03:37.862Z,35.20
2018-03-31T06:06:04.809Z,35.90
2018-03-31T06:08:31.776Z,34.90
2018-03-31T06:10:59.583Z,36.27
2018-03-31T06:13:26.590Z,33.50
2018-03-31T06:15:54.430Z,34.73
2018-03-31T06:18:21.430Z,32.43
2018-03-31T06:20:48.419Z,30.83
2018-03-31T06:23:15.410Z,31.00
2018-03-31T06:25:43.168Z,29.73
2018-03-31T06:28:10.938Z,32.33
2018-03-31T06:30:38.736Z,33.23
2018-03-31T06:33:06.457Z,31.97
2018-03-31T06:35:34.270Z,29.00
2018-03-31T06:38:01.251Z,31.23
2018-03-31T06:40:28.284Z,27.80
2018-03-31T06:42:55.264Z,28.13
2018-03-31T06:45:22.992Z,27.27
2018-03-31T06:47:49.972Z,26.27
2018-03-31T06:50:17.773Z,28.97
2018-03-31T06:52:44.810Z,26.03
2018-03-31T06:55:12.582Z,26.20
2018-03-31T06:57:39.600Z,25.87
2018-03-31T07:00:07.355Z,26.33
2018-03-31T07:02:34.403Z,23.57
2018-03-31T07:05:01.400Z,24.43
2018-03-31T07:07:28.439Z,21.53
2018-03-31T07:09:55.404Z,21.87
2018-03-31T07:12:22.396Z,20.87
2018-03-31T07:14:50.158Z,21.87
2018-03-31T07:17:17.943Z,18.50
2018-03-31T07:19:44.934Z,17.43
2018-03-31T07:22:12.709Z,17.47
2018-03-31T07:24:39.768Z,17.83
2018-03-31T07:27:06.721Z,19.30
2018-03-31T07:29:33.720Z,17.70
2018-03-31T07:32:00.732Z,19.73
2018-03-31T07:34:27.726Z,16.57
2018-03-31T07:36:54.711Z,18.00
2018-03-31T07:39:22.464Z,17.50
2018-03-31T07:41:49.491Z,18.80
2018-03-31T07:44:16.590Z,17.53
2018-03-31T07:46:43.636Z,19.23
2018-03-31T07:49:11.371Z,18.20
2018-03-31T07:51:38.379Z,17.87
2018-03-31T07:54:05.366Z,18.10
2018-03-31T07:56:32.616Z,18.70
2018-03-31T07:58:59.639Z,17.40
2018-03-31T08:01:26.643Z,17.27
2018-03-31T08:03:53.691Z,18.07
2018-03-31T08:06:21.444Z,17.73
2018-03-31T08:08:49.258Z,18.23
2018-03-31T08:11:16.264Z,20.63
2018-03-31T08:13:43.264Z,19.70
2018-03-31T08:16:10.296Z,17.70
2018-03-31T08:18:37.297Z,17.73
2018-03-31T08:21:05.116Z,17.23
2018-03-31T08:23:32.160Z,17.67
2018-03-31T08:25:59.173Z,20.33
2018-03-31T08:28:26.929Z,17.67
2018-03-31T08:30:54.692Z,17.77
2018-03-31T08:33:22.455Z,17.83
2018-03-31T08:35:50.220Z,16.10
2018-03-31T08:38:17.975Z,18.57
2018-03-31T08:40:45.740Z,15.87
2018-03-31T08:43:13.498Z,16.10
2018-03-31T08:45:40.496Z,16.40
2018-03-31T08:48:07.470Z,15.80
2018-03-31T08:50:34.459Z,16.50
2018-03-31T08:53:02.216Z,17.37
2018-03-31T08:55:29.992Z,17.47
2018-03-31T08:57:57.803Z,17.77
2018-03-31T09:00:24.808Z,20.83
2018-03-31T09:02:51.798Z,17.93
2018-03-31T09:05:18.835Z,18.00
2018-03-31T09:07:45.934Z,17.87
2018-03-31T09:10:13.703Z,18.53
2018-03-31T09:12:41.509Z,22.87
2018-03-31T09:15:09.224Z,17.77
2018-03-31T09:17:37.041Z,18.53
2018-03-31T09:20:04.022Z,17.77
2018-03-31T09:22:31.058Z,18.37
2018-03-31T09:24:58.036Z,19.93
2018-03-31T09:27:25.040Z,17.07
2018-03-31T09:29:52.013Z,18.53
2018-03-31T09:32:19.016Z,17.07
2018-03-31T09:34:45.996Z,17.67
2018-03-31T09:37:13.015Z,17.70
2018-03-31T09:39:40.033Z,19.03
2018-03-31T09:42:07.085Z,18.40
2018-03-31T09:44:34.083Z,17.67
2018-03-31T09:47:01.077Z,15.13
2018-03-31T09:49:28.076Z,16.17
2018-03-31T09:51:55.095Z,16.27
2018-03-31T09:54:22.178Z,17.67
2018-03-31T09:56:49.166Z,17.00
2018-03-31T09:59:16.173Z,14.10
2018-03-31T10:01:43.248Z,14.63
2018-03-31T10:04:10.992Z,15.17
2018-03-31T10:06:38.792Z,16.53
2018-03-31T10:09:05.799Z,18.83
2018-03-31T10:11:32.812Z,17.33
2018-03-31T10:13:59.811Z,21.67
2018-03-31T10:16:27.639Z,23.33
2018-03-31T10:18:54.613Z,22.60
2018-03-31T10:21:21.613Z,21.60
2018-03-31T10:23:48.593Z,22.67
2018-03-31T10:26:15.707Z,23.97
2018-03-31T10:28:42.679Z,21.80
2018-03-31T10:31:09.690Z,20.77
2018-03-31T10:33:36.689Z,20.40
2018-03-31T10:36:03.815Z,26.27
2018-03-31T10:38:30.802Z,22.03
2018-03-31T10:40:58.543Z,21.67
2018-03-31T10:43:25.607Z,20.97
2018-03-31T10:45:52.617Z,19.27
2018-03-31T10:48:20.379Z,19.83
2018-03-31T10:50:47.425Z,20.80
2018-03-31T10:53:14.437Z,20.37
2018-03-31T10:55:41.420Z,20.10
2018-03-31T10:58:08.424Z,19.10
2018-03-31T11:00:36.176Z,19.63
2018-03-31T11:03:03.168Z,17.50
2018-03-31T11:05:30.158Z,17.33
2018-03-31T11:07:57.249Z,19.23
2018-03-31T11:10:24.240Z,18.53
2018-03-31T11:12:51.294Z,19.13
2018-03-31T11:15:18.237Z,16.80
2018-03-31T11:17:45.261Z,15.17
2018-03-31T11:20:12.254Z,17.30
2018-03-31T11:22:40.068Z,17.20
2018-03-31T11:25:07.060Z,20.07
2018-03-31T11:27:34.859Z,18.93
2018-03-31T11:30:01.853Z,19.97
2018-03-31T11:32:28.864Z,21.00
2018-03-31T11:34:55.864Z,17.20
2018-03-31T11:37:22.892Z,17.43
2018-03-31T11:39:49.905Z,19.57
2018-03-31T11:42:16.891Z,18.80
2018-03-31T11:44:43.896Z,20.17
2018-03-31T11:47:10.896Z,16.33
2018-03-31T11:49:38.062Z,17.47
2018-03-31T11:52:10.585Z,18.00
2018-03-31T11:54:37.770Z,17.90
2018-03-31T11:57:04.769Z,18.67
2018-03-31T12:00:11.913Z,18.60
2018-03-31T12:02:52.740Z,17.60
2018-03-31T12:05:20.840Z,20.00
2018-03-31T12:07:47.891Z,18.70
2018-03-31T12:10:14.924Z,18.97
2018-03-31T12:12:42.100Z,15.73
2018-03-31T12:15:09.121Z,16.00
2018-03-31T12:17:36.143Z,13.97
2018-03-31T12:20:03.184Z,19.07
2018-03-31T12:22:30.171Z,14.70
2018-03-31T12:25:04.478Z,16.23
2018-03-31T12:27:31.532Z,17.73
2018-03-31T12:30:05.769Z,17.43
2018-03-31T12:32:33.974Z,14.53
2018-03-31T12:35:01.927Z,14.67
2018-03-31T12:37:28.979Z,16.27
2018-03-31T12:39:56.773Z,16.10
2018-03-31T12:42:23.802Z,17.17
2018-03-31T12:44:51.553Z,15.40
2018-03-31T12:47:19.341Z,17.13
2018-03-31T12:49:46.330Z,20.87
2018-03-31T12:52:13.412Z,17.70
2018-03-31T12:54:40.388Z,20.43
2018-03-31T12:57:07.491Z,20.00
2018-03-31T12:59:34.484Z,19.13
2018-03-31T13:02:01.500Z,22.67
2018-03-31T13:04:29.312Z,22.10
2018-03-31T13:06:57.051Z,18.30
2018-03-31T13:09:24.814Z,22.23
2018-03-31T13:11:52.544Z,20.43
2018-03-31T13:14:19.549Z,22.47
2018-03-31T13:16:46.528Z,21.17
2018-03-31T13:19:13.520Z,21.57
2018-03-31T13:21:41.380Z,18.70
2018-03-31T13:24:09.169Z,18.73
2018-03-31T13:26:36.161Z,28.50
2018-03-31T13:29:03.163Z,28.70
2018-03-31T13:31:30.252Z,29.43
2018-03-31T13:33:57.299Z,30.10
2018-03-31T13:36:24.348Z,32.23
2018-03-31T13:38:51.460Z,33.63
2018-03-31T13:41:18.494Z,31.83
2018-03-31T13:43:45.650Z,30.13
2018-03-31T13:46:12.654Z,27.70
2018-03-31T13:48:39.688Z,27.23
2018-03-31T13:51:06.685Z,27.50
2018-03-31T13:53:33.707Z,29.53
2018-03-31T13:56:00.730Z,31.57
2018-03-31T13:58:27.742Z,31.07
2018-03-31T14:00:54.817Z,28.47
2018-03-31T14:03:21.793Z,32.00
2018-03-31T14:05:48.796Z,31.23
2018-03-31T14:08:15.814Z,32.13
2018-03-31T14:10:42.824Z,32.43
2018-03-31T14:13:09.933Z,30.30
2018-03-31T14:15:36.972Z,32.27
2018-03-31T14:18:03.960Z,31.80
2018-03-31T14:20:30.984Z,30.60
2018-03-31T14:22:58.102Z,31.50
2018-03-31T14:25:25.092Z,31.20
2018-03-31T14:27:52.095Z,29.50
2018-03-31T14:30:19.115Z,28.70
2018-03-31T14:32:46.142Z,34.53
2018-03-31T14:35:13.150Z,33.33
2018-03-31T14:37:40.146Z,34.87
2018-03-31T14:40:07.126Z,31.13
2018-03-31T14:42:34.224Z,31.77
2018-03-31T14:45:01.198Z,33.33
2018-03-31T14:47:29.004Z,34.30
2018-03-31T14:49:56.005Z,33.47
2018-03-31T14:52:23.029Z,33.50
2018-03-31T14:54:50.045Z,34.17
2018-03-31T14:57:17.054Z,33.23
2018-03-31T14:59:44.083Z,34.60
2018-03-31T15:02:11.080Z,34.90
2018-03-31T15:04:38.078Z,37.90
2018-03-31T15:07:05.128Z,41.53
2018-03-31T15:09:32.235Z,36.83
2018-03-31T15:12:00.896Z,39.07
2018-03-31T15:14:28.634Z,41.77
2018-03-31T15:16:55.635Z,41.67
2018-03-31T15:19:22.623Z,38.07
2018-03-31T15:21:49.651Z,43.37
2018-03-31T15:24:16.632Z,39.60
2018-03-31T15:26:44.420Z,41.80
2018-03-31T15:29:11.436Z,40.83
2018-03-31T15:31:38.424Z,35.70
2018-03-31T15:34:05.410Z,36.20
2018-03-31T15:36:32.409Z,38.30
2018-03-31T15:38:59.532Z,38.77
2018-03-31T15:41:26.656Z,38.27
2018-03-31T15:43:53.698Z,37.57
2018-03-31T15:46:20.700Z,39.20
2018-03-31T15:48:47.702Z,38.20
2018-03-31T15:51:14.731Z,34.87
2018-03-31T15:53:41.753Z,39.47
2018-03-31T15:56:08.743Z,43.90
2018-03-31T15:58:35.735Z,48.07
2018-03-31T16:01:02.756Z,43.20
2018-03-31T16:03:29.820Z,40.20
2018-03-31T16:05:56.816Z,44.40
2018-03-31T16:08:23.917Z,41.77
2018-03-31T16:10:51.749Z,41.57
2018-03-31T16:13:18.725Z,55.93
2018-03-31T16:15:46.547Z,53.23
2018-03-31T16:18:13.553Z,53.70
2018-03-31T16:20:40.556Z,53.40
2018-03-31T16:23:07.589Z,49.97
2018-03-31T16:25:34.577Z,49.07
2018-03-31T16:28:02.345Z,46.97
2018-03-31T16:30:30.229Z,49.13
2018-03-31T16:32:57.262Z,43.07
2018-03-31T16:35:25.067Z,46.13
2018-03-31T16:37:52.163Z,46.57
2018-03-31T16:40:19.980Z,46.80
2018-03-31T16:42:47.299Z,46.57
2018-03-31T16:45:15.043Z,45.47
2018-03-31T16:47:42.120Z,46.13
2018-03-31T16:50:09.146Z,40.67
2018-03-31T16:52:36.918Z,42.03
2018-03-31T16:55:04.703Z,42.03
2018-03-31T16:57:31.717Z,37.50
2018-03-31T16:59:59.537Z,41.73
2018-03-31T17:02:26.545Z,42.37
2018-03-31T17:04:54.307Z,39.70
2018-03-31T17:07:22.084Z,37.97
2018-03-31T17:09:49.602Z,42.90
2018-03-31T17:12:16.592Z,40.57
2018-03-31T17:14:43.594Z,39.40
2018-03-31T17:17:10.598Z,38.67
2018-03-31T17:19:37.669Z,40.87
2018-03-31T17:22:04.679Z,40.87
2018-03-31T17:24:32.310Z,43.83
2018-03-31T17:26:59.312Z,45.07
2018-03-31T17:29:26.306Z,47.70
2018-03-31T17:31:53.302Z,50.80
2018-03-31T17:34:20.338Z,50.90
2018-03-31T17:36:47.358Z,62.30
2018-03-31T17:39:14.336Z,60.13
2018-03-31T17:41:41.351Z,61.67
2018-03-31T17:44:09.905Z,56.27
2018-03-31T17:46:36.914Z,58.67
2018-03-31T17:49:04.041Z,61.30
2018-03-31T17:51:31.825Z,61.47
2018-03-31T17:53:58.864Z,68.37
2018-03-31T17:56:25.892Z,60.13
2018-03-31T17:58:53.714Z,59.50
2018-03-31T18:01:20.724Z,58.50
2018-03-31T18:03:47.770Z,59.50
2018-03-31T18:06:14.810Z,56.77
2018-03-31T18:08:41.789Z,56.93
2018-03-31T18:11:08.827Z,52.83
2018-03-31T18:13:35.838Z,56.67
2018-03-31T18:16:03.618Z,60.20
2018-03-31T18:18:31.391Z,62.13
2018-03-31T18:20:58.401Z,61.00
2018-03-31T18:23:25.386Z,57.53
2018-03-31T18:25:52.396Z,57.53
2018-03-31T18:28:19.403Z,58.43
2018-03-31T18:30:46.406Z,53.80
2018-03-31T18:33:13.491Z,53.83
2018-03-31T18:35:40.484Z,54.70
2018-03-31T18:38:07.551Z,55.33
2018-03-31T18:40:35.326Z,52.87
2018-03-31T18:43:03.099Z,57.87
2018-03-31T18:45:30.159Z,57.63
2018-03-31T18:47:57.151Z,52.17
2018-03-31T18:50:24.145Z,54.73
2018-03-31T18:52:51.198Z,52.27
2018-03-31T18:55:18.292Z,57.30
2018-03-31T18:57:45.306Z,54.23
2018-03-31T19:00:12.341Z,48.87
2018-03-31T19:02:39.403Z,46.10
2018-03-31T19:05:06.429Z,52.07
2018-03-31T19:07:33.425Z,55.63
2018-03-31T19:10:00.476Z,62.90
2018-03-31T19:12:27.473Z,53.60
2018-03-31T19:14:54.477Z,62.77
2018-03-31T19:17:21.474Z,52.93
2018-03-31T19:19:48.484Z,50.20
2018-03-31T19:22:16.307Z,48.70
2018-03-31T19:24:49.124Z,53.30
2018-03-31T19:27:16.092Z,53.97
2018-03-31T19:29:44.012Z,56.43
2018-03-31T19:32:11.233Z,52.10
2018-03-31T19:34:38.255Z,45.60
2018-03-31T19:37:06.023Z,42.87
2018-03-31T19:39:39.467Z,34.23
2018-03-31T19:42:06.441Z,44.60
2018-03-31T19:44:33.445Z,43.60
2018-03-31T19:47:00.450Z,46.10
2018-03-31T19:49:27.473Z,49.83
2018-03-31T19:51:54.592Z,52.60
2018-03-31T19:54:21.627Z,50.33
2018-03-31T19:56:48.648Z,47.33
2018-03-31T19:59:16.445Z,46.50
2018-03-31T20:01:43.450Z,44.07
2018-03-31T20:04:11.725Z,48.63
2018-03-31T20:06:39.533Z,47.57
2018-03-31T20:09:06.500Z,47.37
2018-03-31T20:11:33.491Z,48.87
2018-03-31T20:14:01.300Z,42.67
2018-03-31T20:16:28.305Z,45.27
2018-03-31T20:18:55.295Z,43.53
2018-03-31T20:21:22.306Z,41.80
2018-03-31T20:23:50.092Z,38.07
2018-03-31T20:26:17.089Z,38.10
2018-03-31T20:28:44.155Z,40.53
2018-03-31T20:31:11.100Z,37.77
2018-03-31T20:33:38.851Z,38.97
2018-03-31T20:36:05.905Z,39.47
2018-03-31T20:38:33.004Z,40.97
2018-03-31T20:40:59.989Z,40.60
2018-03-31T20:43:27.018Z,44.27
2018-03-31T20:45:54.023Z,40.40
2018-03-31T20:48:21.023Z,37.47
2018-03-31T20:50:47.992Z,39.47
2018-03-31T20:53:14.999Z,44.73
2018-03-31T20:55:42.008Z,42.53
2018-03-31T20:58:09.062Z,43.67
2018-03-31T21:00:36.072Z,40.23
2018-03-31T21:03:03.200Z,44.47
2018-03-31T21:05:30.190Z,39.80
2018-03-31T21:07:57.990Z,44.13
2018-03-31T21:10:24.978Z,36.07
2018-03-31T21:12:51.981Z,34.33
2018-03-31T21:15:18.997Z,38.63
2018-03-31T21:17:46.741Z,33.83
2018-03-31T21:20:13.805Z,35.47
2018-03-31T21:22:41.564Z,36.63
2018-03-31T21:25:09.346Z,34.50
2018-03-31T21:27:37.142Z,43.60
2018-03-31T21:30:04.177Z,46.03
2018-03-31T21:32:31.180Z,44.17
2018-03-31T21:34:58.250Z,50.10
2018-03-31T21:37:26.037Z,45.33
2018-03-31T21:39:53.053Z,46.20
2018-03-31T21:42:20.866Z,35.83
2018-03-31T21:44:47.849Z,30.67
2018-03-31T21:47:14.889Z,31.50
2018-03-31T21:49:41.896Z,29.30
2018-03-31T21:52:08.953Z,26.17
2018-03-31T21:54:35.939Z,27.90
2018-03-31T21:57:02.962Z,30.97
2018-03-31T21:59:29.932Z,29.40
2018-03-31T22:01:56.959Z,30.37
2018-03-31T22:04:24.029Z,34.43
2018-03-31T22:06:51.039Z,38.53
2018-03-31T22:09:18.030Z,37.23
2018-03-31T22:11:45.030Z,39.90
2018-03-31T22:14:18.072Z,40.43
2018-03-31T22:16:45.071Z,41.63
2018-03-31T22:19:12.099Z,44.17
2018-03-31T22:21:39.149Z,41.75
2018-03-31T22:24:06.150Z,39.80
2018-03-31T22:26:33.168Z,39.50
2018-03-31T22:29:00.296Z,43.10
2018-03-31T22:31:27.277Z,41.53
2018-03-31T22:33:54.361Z,41.47
2018-03-31T22:36:22.154Z,44.17
2018-03-31T22:38:49.181Z,46.40
2018-03-31T22:41:16.986Z,48.40
2018-03-31T22:43:44.033Z,42.80
2018-03-31T22:46:11.082Z,48.43
2018-03-31T22:48:38.083Z,47.70
2018-03-31T22:51:05.887Z,48.20
2018-03-31T22:53:32.896Z,49.83
2018-03-31T22:55:59.892Z,54.63
2018-03-31T22:58:27.698Z,53.07
2018-03-31T23:00:55.509Z,52.00
2018-03-31T23:03:22.515Z,50.43
2018-03-31T23:05:50.306Z,47.47
2018-03-31T23:08:19.152Z,67.57
2018-03-31T23:10:46.261Z,50.23
2018-03-31T23:13:13.261Z,45.50
2018-03-31T23:15:41.065Z,49.20
2018-03-31T23:18:08.064Z,50.73
2018-03-31T23:20:35.086Z,48.00
2018-03-31T23:23:02.067Z,47.47
2018-03-31T23:25:29.871Z,49.27
2018-03-31T23:27:56.881Z,49.10
2018-03-31T23:30:24.703Z,49.63
2018-03-31T23:32:51.675Z,46.77
2018-03-31T23:35:18.768Z,49.33
2018-03-31T23:37:45.778Z,49.70
2018-03-31T23:40:13.567Z,48.80
2018-03-31T23:42:40.567Z,52.30
2018-03-31T23:45:07.646Z,54.00
2018-03-31T23:47:34.675Z,53.80
2018-03-31T23:50:01.665Z,52.47
2018-03-31T23:52:28.724Z,49.20
2018-03-31T23:54:55.777Z,52.53
2018-03-31T23:57:22.891Z,53.80
2018-03-31T23:59:49.893Z,48.27
